Terminal Aerodrome Forecast
Issued by NWS

Home | Current Version | Previous Version | Text Only | Print | Product List | Glossary On
Versions: 1 2 3 4 5 6 7 8 9 10 11 12 13 14 15 16 17 18 19 20 21 22 23 24 25 26 27 28 29 30 31 32 33 34 35 36 37 38 39 40 41 42 43 44 45 46 47 48
000
FTUS43 KDTX 271941 AAA
TAFYIP
TAF AMD
KYIP 271941Z 2720/2818 15008KT 6SM -SHRA SCT060 OVC120
     FM272100 14005KT P6SM SCT080 OVC120
     FM280900 VRB03KT 4SM BR SCT015
     FM281400 25006KT P6SM BKN025
     FM281700 27010KT P6SM BKN035=

USA.gov is the U.S. government's official web portal to all federal, state and local government web resources and services.